Time;durP1;ratioP1;P1;durP2;ratioP2;P2;SDS_P1;SDS_P2;PMS_P1;PMS_P2;Temp;Humidity;BMP_temperature;BMP_pressure;BME280_temperature;BME280_humidity;BME280_pressure;Samples;Min_cycle;Max_cycle;Signal;HPM_P1;HPM_P2
2022/05/03 00:02:44;;;;;;;;;;;;;;;8.39;100.00;96032.63;5011647;28;19924;-81
2022/05/03 00:05:16;;;;;;;;;;;;;;;8.37;100.00;96033.72;5002331;28;19918;-80
2022/05/03 00:07:48;;;;;;;;;;;;;;;8.39;100.00;96034.41;5008939;28;19921;-81
2022/05/03 00:10:20;;;;;;;;;;;;;;;8.42;100.00;96034.13;5011442;28;19913;-81
2022/05/03 00:13:03;;;;;;;;;;;;;;;8.25;100.00;96028.69;4983978;28;19917;-80
2022/05/03 00:15:30;;;;;;;;;;;;;;;8.32;100.00;96025.50;5013615;28;20382;-79
2022/05/03 00:17:55;;;;;;;;;;;;;;;8.28;100.00;96024.94;5015490;28;20000;-81
2022/05/03 00:20:21;;;;;;;;;;;;;;;8.29;100.00;96025.78;5011273;28;19994;-80
2022/05/03 00:22:47;;;;;;;;;;;;;;;8.32;100.00;96022.88;5016064;28;19917;-80
2022/05/03 00:25:12;;;;;;;;;;;;;;;8.32;100.00;96022.88;5009212;28;19937;-81
2022/05/03 00:27:38;;;;;;;;;;;;;;;8.26;100.00;96025.09;5011955;28;20012;-80
2022/05/03 00:30:04;;;;;;;;;;;;;;;8.21;100.00;96016.03;5008268;28;20355;-81
2022/05/03 00:32:30;;;;;;;;;;;;;;;8.22;100.00;96015.91;5004028;28;19928;-80
2022/05/03 00:34:57;;;;;;;;;;;;;;;8.18;100.00;96013.72;5002432;28;19963;-80
2022/05/03 00:37:23;;;;;;;;;;;;;;;8.21;100.00;96022.09;5007678;28;19921;-80
2022/05/03 00:39:49;;;;;;;;;;;;;;;8.17;100.00;96015.50;5012740;28;20294;-80
2022/05/03 00:42:17;;;;;;;;;;;;;;;8.12;100.00;96015.16;5012164;28;19916;-79
2022/05/03 00:44:58;;;;;;;;;;;;;;;8.08;100.00;96010.34;5015357;28;19944;-80
2022/05/03 00:47:38;;;;;;;;;;;;;;;8.07;100.00;96017.38;5017645;28;19921;-79
2022/05/03 00:50:08;;;;;;;;;;;;;;;8.08;100.00;96008.56;5013088;28;19914;-80
2022/05/03 00:52:47;;;;;;;;;;;;;;;7.93;100.00;96005.63;5008155;28;19921;-79
2022/05/03 00:55:15;;;;;;;;;;;;;;;7.89;100.00;96000.84;5021081;28;20342;-80
2022/05/03 00:57:50;;;;;;;;;;;;;;;7.91;100.00;96006.75;5019977;28;19961;-79
2022/05/03 01:00:16;;;;;;;;;;;;;;;7.79;100.00;96008.75;5011069;28;19940;-80
2022/05/03 01:02:47;;;;;;;;;;;;;;;7.69;100.00;96011.44;5007674;28;19983;-80
2022/05/03 01:05:15;;;;;;;;;;;;;;;7.67;100.00;96009.94;5008236;28;20011;-80
2022/05/03 01:07:48;;;;;;;;;;;;;;;7.66;100.00;96014.34;4997411;28;19937;-79
2022/05/03 01:10:17;;;;;;;;;;;;;;;7.51;100.00;96015.78;5036455;28;19917;-80
2022/05/03 01:12:42;;;;;;;;;;;;;;;7.43;100.00;96016.53;5012284;28;19941;-80
2022/05/03 01:15:11;;;;;;;;;;;;;;;7.47;100.00;96012.63;5018664;28;19937;-80
2022/05/03 01:17:42;;;;;;;;;;;;;;;7.54;100.00;96005.88;5014218;28;19928;-80
2022/05/03 01:20:08;;;;;;;;;;;;;;;7.59;100.00;96005.44;5012455;28;19937;-80
2022/05/03 01:22:53;;;;;;;;;;;;;;;7.59;100.00;96005.44;5011139;28;19913;-80
2022/05/03 01:25:24;;;;;;;;;;;;;;;7.62;100.00;96010.38;5009160;28;19917;-80
2022/05/03 01:27:53;;;;;;;;;;;;;;;7.63;100.00;96006.78;5018057;28;19957;-81
2022/05/03 01:30:19;;;;;;;;;;;;;;;7.63;100.00;96008.56;5020270;28;20382;-80
2022/05/03 01:32:44;;;;;;;;;;;;;;;7.66;100.00;96009.09;5012958;28;19937;-80
2022/05/03 01:35:14;;;;;;;;;;;;;;;7.55;100.00;96012.75;5011388;28;20225;-80
2022/05/03 01:37:52;;;;;;;;;;;;;;;7.52;100.00;96009.59;5017292;28;19952;-80
2022/05/03 01:40:38;;;;;;;;;;;;;;;7.57;100.00;96007.34;5015721;28;19995;-80
2022/05/03 01:43:23;;;;;;;;;;;;;;;7.54;100.00;96000.66;5007613;28;19913;-79
2022/05/03 01:46:02;;;;;;;;;;;;;;;7.57;100.00;95999.50;5016755;28;19925;-80
2022/05/03 01:50:18;;;;;;;;;;;;;;;7.48;100.00;95998.63;5017085;28;20374;-80
2022/05/03 01:51:25;;;;;;;;;;;;;;;7.52;100.00;95993.91;5008142;28;19947;-80
2022/05/03 01:53:56;;;;;;;;;;;;;;;7.45;100.00;96000.69;5010377;28;19967;-80
2022/05/03 01:56:21;;;;;;;;;;;;;;;7.21;100.00;96003.81;5011230;28;19913;-80
2022/05/03 01:59:10;;;;;;;;;;;;;;;7.17;100.00;96011.13;5014345;28;19913;-80
2022/05/03 02:01:41;;;;;;;;;;;;;;;7.15;100.00;96005.22;5007608;28;20392;-80
2022/05/03 02:04:26;;;;;;;;;;;;;;;7.07;100.00;96003.31;5001786;28;19961;-80
2022/05/03 02:07:06;;;;;;;;;;;;;;;7.08;100.00;96004.16;5010235;28;19956;-80
2022/05/03 02:09:45;;;;;;;;;;;;;;;7.15;100.00;96001.78;5016638;28;19914;-80
2022/05/03 02:12:15;;;;;;;;;;;;;;;7.12;100.00;96005.50;5016571;28;19960;-80
2022/05/03 02:14:50;;;;;;;;;;;;;;;7.14;100.00;95997.50;5011330;28;19918;-80
2022/05/03 02:17:25;;;;;;;;;;;;;;;7.13;100.00;95999.31;5018124;28;19945;-80
2022/05/03 02:20:05;;;;;;;;;;;;;;;7.18;100.00;95998.91;5010818;28;19917;-80
2022/05/03 02:22:30;;;;;;;;;;;;;;;7.09;100.00;96005.78;5013442;28;19917;-80
2022/05/03 02:24:59;;;;;;;;;;;;;;;7.14;100.00;96008.78;4994446;28;20035;-80
2022/05/03 02:27:26;;;;;;;;;;;;;;;7.17;100.00;96000.66;5013753;28;19996;-80
2022/05/03 02:29:51;;;;;;;;;;;;;;;7.16;100.00;96000.81;5016198;28;19913;-80
2022/05/03 02:32:43;;;;;;;;;;;;;;;7.07;100.00;96008.53;5015994;28;19920;-80
2022/05/03 02:35:13;;;;;;;;;;;;;;;6.99;100.00;96011.06;4998601;28;19913;-80
2022/05/03 02:37:49;;;;;;;;;;;;;;;6.76;100.00;96012.34;5016167;28;20044;-80
2022/05/03 02:40:25;;;;;;;;;;;;;;;6.65;100.00;96017.75;5020028;28;19913;-80
2022/05/03 02:42:51;;;;;;;;;;;;;;;6.41;100.00;96012.97;5017026;28;19944;-80
2022/05/03 02:45:17;;;;;;;;;;;;;;;6.56;100.00;96008.94;5010691;28;19917;-80
2022/05/03 02:47:43;;;;;;;;;;;;;;;6.51;100.00;96004.16;5010095;28;19967;-80
2022/05/03 02:50:17;;;;;;;;;;;;;;;6.46;100.00;95997.69;5006347;28;19913;-80
2022/05/03 02:52:49;;;;;;;;;;;;;;;6.52;100.00;96003.19;5024960;28;19913;-79
2022/05/03 02:55:33;;;;;;;;;;;;;;;6.52;100.00;96007.59;5015482;28;19914;-80
2022/05/03 02:58:19;;;;;;;;;;;;;;;6.52;100.00;96005.78;5017599;28;20020;-79
2022/05/03 03:03:37;;;;;;;;;;;;;;;6.50;100.00;95999.88;5012309;28;19913;-80
2022/05/03 03:06:04;;;;;;;;;;;;;;;6.52;100.00;96005.78;5003437;28;19922;-79
2022/05/03 03:08:35;;;;;;;;;;;;;;;6.52;100.00;95999.75;5010000;28;19959;-80
2022/05/03 03:11:03;;;;;;;;;;;;;;;6.45;100.00;96011.72;5011486;28;19967;-80
2022/05/03 03:13:32;;;;;;;;;;;;;;;6.42;100.00;96012.00;5025280;28;19913;-80
2022/05/03 03:15:57;;;;;;;;;;;;;;;6.44;100.00;96012.66;5012451;28;19978;-79
2022/05/03 03:18:24;;;;;;;;;;;;;;;6.43;100.00;96013.63;5013494;28;19913;-79
2022/05/03 03:20:57;;;;;;;;;;;;;;;6.48;100.00;96006.22;5009721;28;19988;-80
2022/05/03 03:23:26;;;;;;;;;;;;;;;6.48;100.00;96008.84;5013524;28;19936;-79
2022/05/03 03:25:52;;;;;;;;;;;;;;;6.37;100.00;96013.25;5010229;28;20313;-80
2022/05/03 03:28:19;;;;;;;;;;;;;;;6.37;100.00;96005.41;5013487;28;19917;-80
2022/05/03 03:30:46;;;;;;;;;;;;;;;6.36;100.00;96002.91;5007443;28;19916;-79
2022/05/03 03:33:12;;;;;;;;;;;;;;;6.28;100.00;96005.41;5009929;28;19936;-80
2022/05/03 03:35:38;;;;;;;;;;;;;;;6.21;100.00;96004.31;4998625;28;19913;-79
2022/05/03 03:38:05;;;;;;;;;;;;;;;6.23;100.00;96000.59;5007142;28;19920;-79
2022/05/03 03:40:30;;;;;;;;;;;;;;;6.29;100.00;95997.44;5007493;28;19921;-79
2022/05/03 03:42:56;;;;;;;;;;;;;;;6.30;100.00;96001.69;5015347;28;19996;-80
2022/05/03 03:45:22;;;;;;;;;;;;;;;6.35;100.00;96009.94;5012514;28;20292;-80
2022/05/03 03:47:48;;;;;;;;;;;;;;;6.38;100.00;96003.63;5000704;28;20110;-80
2022/05/03 03:50:14;;;;;;;;;;;;;;;6.33;100.00;95997.97;5017447;28;19917;-79
2022/05/03 03:52:43;;;;;;;;;;;;;;;6.29;100.00;96007.06;5014079;28;19925;-79
2022/05/03 03:55:10;;;;;;;;;;;;;;;6.17;100.00;96009.00;5015568;28;20012;-79
2022/05/03 03:57:36;;;;;;;;;;;;;;;6.23;100.00;96008.41;5007155;28;19920;-80
2022/05/03 04:00:09;;;;;;;;;;;;;;;6.18;100.00;96010.63;5016959;28;19920;-80
2022/05/03 04:02:41;;;;;;;;;;;;;;;6.14;100.00;96011.88;5012025;28;19913;-80
2022/05/03 04:05:13;;;;;;;;;;;;;;;6.16;100.00;96015.16;5029354;28;19936;-79
2022/05/03 04:07:39;;;;;;;;;;;;;;;6.10;100.00;96005.25;5010211;28;20004;-79
2022/05/03 04:10:04;;;;;;;;;;;;;;;6.08;100.00;96001.97;5010009;28;20286;-80
2022/05/03 04:12:31;;;;;;;;;;;;;;;6.11;100.00;96014.75;5008067;28;20326;-79
2022/05/03 04:14:57;;;;;;;;;;;;;;;5.99;100.00;96006.22;5013131;28;20510;-78
2022/05/03 04:17:22;;;;;;;;;;;;;;;6.03;100.00;96019.81;4994165;28;19959;-80
2022/05/03 04:19:48;;;;;;;;;;;;;;;6.03;100.00;96018.03;5003212;28;19913;-80
2022/05/03 04:22:23;;;;;;;;;;;;;;;6.16;100.00;96015.16;5013203;28;20028;-80
2022/05/03 04:24:48;;;;;;;;;;;;;;;6.21;100.00;96020.81;4995069;28;19921;-79
2022/05/03 04:27:15;;;;;;;;;;;;;;;6.22;100.00;96012.00;5012848;28;19922;-79
2022/05/03 04:29:40;;;;;;;;;;;;;;;6.30;100.00;96014.75;5009177;28;19924;-79
2022/05/03 04:32:06;;;;;;;;;;;;;;;6.32;100.00;96012.81;5027105;28;20344;-78
2022/05/03 04:34:32;;;;;;;;;;;;;;;6.45;100.00;96012.53;5011360;28;20350;-78
2022/05/03 04:36:58;;;;;;;;;;;;;;;6.49;100.00;96018.31;5004158;28;20041;-79
2022/05/03 04:39:23;;;;;;;;;;;;;;;6.43;100.00;96016.25;5005131;28;19987;-79
2022/05/03 04:41:49;;;;;;;;;;;;;;;6.48;100.00;96016.69;5006843;28;19957;-79
2022/05/03 04:44:14;;;;;;;;;;;;;;;6.55;100.00;96020.38;5007084;28;19936;-79
2022/05/03 04:46:40;;;;;;;;;;;;;;;6.60;100.00;96021.59;5008889;28;19925;-79
2022/05/03 04:49:05;;;;;;;;;;;;;;;6.60;100.00;96018.97;5013727;28;19922;-78
2022/05/03 04:51:31;;;;;;;;;;;;;;;6.66;100.00;96017.59;5013869;28;19966;-79
2022/05/03 04:53:57;;;;;;;;;;;;;;;6.70;100.00;96023.38;5016856;28;19913;-79
2022/05/03 04:56:23;;;;;;;;;;;;;;;6.72;100.00;96014.44;5018994;28;20432;-78
2022/05/03 04:58:49;;;;;;;;;;;;;;;6.55;100.00;96028.22;5022671;28;19917;-78
2022/05/03 05:01:15;;;;;;;;;;;;;;;6.56;100.00;96032.47;5015463;28;19918;-79
2022/05/03 05:03:41;;;;;;;;;;;;;;;6.65;100.00;96023.78;5013580;28;19917;-79
2022/05/03 05:06:07;;;;;;;;;;;;;;;6.76;100.00;96026.25;5014372;28;19917;-79
2022/05/03 05:08:32;;;;;;;;;;;;;;;6.84;100.00;96029.00;5005166;28;19913;-79
2022/05/03 05:10:58;;;;;;;;;;;;;;;7.15;100.00;96026.16;5009034;28;20040;-79
2022/05/03 05:13:25;;;;;;;;;;;;;;;7.39;100.00;96033.47;5006152;28;19910;-79
2022/05/03 05:15:50;;;;;;;;;;;;;;;7.26;100.00;96033.81;5013615;28;19921;-79
2022/05/03 05:18:16;;;;;;;;;;;;;;;7.22;100.00;96035.06;5007114;28;19917;-79
2022/05/03 05:20:42;;;;;;;;;;;;;;;6.81;100.00;96044.97;5013066;28;19921;-79
2022/05/03 05:23:08;;;;;;;;;;;;;;;7.04;100.00;96034.16;5014879;28;19925;-79
2022/05/03 05:25:34;;;;;;;;;;;;;;;7.43;100.00;96026.16;5013881;28;19913;-79
2022/05/03 05:27:59;;;;;;;;;;;;;;;7.65;100.00;96038.88;5016972;28;19972;-80
2022/05/03 05:30:25;;;;;;;;;;;;;;;8.02;100.00;96030.13;5018597;28;20007;-80
2022/05/03 05:32:50;;;;;;;;;;;;;;;8.23;100.00;96033.25;5007398;28;20008;-80
2022/05/03 05:35:16;;;;;;;;;;;;;;;8.55;100.00;96031.94;5014736;28;19919;-80
2022/05/03 05:37:41;;;;;;;;;;;;;;;8.80;100.00;96029.50;4999800;28;19916;-80
2022/05/03 05:40:08;;;;;;;;;;;;;;;9.20;100.00;96024.50;5013526;28;19960;-80
2022/05/03 05:42:34;;;;;;;;;;;;;;;9.57;100.00;96012.88;5011441;28;19924;-80
2022/05/03 05:44:59;;;;;;;;;;;;;;;9.57;100.00;96022.53;5013890;28;20277;-80
2022/05/03 05:47:26;;;;;;;;;;;;;;;9.84;100.00;96018.88;5013903;28;19921;-80
2022/05/03 05:49:52;;;;;;;;;;;;;;;9.66;100.00;96018.97;5013610;28;19980;-80
2022/05/03 05:55:02;;;;;;;;;;;;;;;10.43;100.00;96017.03;5005621;28;19919;-81
2022/05/03 05:57:27;;;;;;;;;;;;;;;10.64;100.00;96020.97;5010858;28;19913;-81
2022/05/03 05:59:53;;;;;;;;;;;;;;;10.95;100.00;96018.47;5010198;28;19918;-80
2022/05/03 06:02:18;;;;;;;;;;;;;;;11.00;100.00;96014.38;5008597;28;19913;-78
2022/05/03 06:04:44;;;;;;;;;;;;;;;11.07;100.00;96011.91;5012384;28;19920;-81
2022/05/03 06:07:09;;;;;;;;;;;;;;;11.53;100.00;96012.88;5005291;28;19931;-82
2022/05/03 06:09:35;;;;;;;;;;;;;;;11.88;100.00;96015.25;5015188;28;20282;-80
2022/05/03 06:12:01;;;;;;;;;;;;;;;12.09;100.00;96018.09;5012255;28;19913;-81
2022/05/03 06:14:26;;;;;;;;;;;;;;;11.99;100.00;96023.59;5016651;28;19971;-80
2022/05/03 06:16:54;;;;;;;;;;;;;;;11.74;100.00;96024.69;5016100;28;19913;-81
2022/05/03 06:19:19;;;;;;;;;;;;;;;12.05;100.00;96016.00;5022978;28;19909;-80
2022/05/03 06:21:45;;;;;;;;;;;;;;;12.05;100.00;96016.00;5023492;28;20025;-80
2022/05/03 06:24:10;;;;;;;;;;;;;;;12.07;100.00;96016.63;4999613;28;19925;-82
2022/05/03 06:26:36;;;;;;;;;;;;;;;12.74;100.00;96017.66;5000571;28;19914;-81
2022/05/03 06:29:02;;;;;;;;;;;;;;;12.54;100.00;96018.28;5028585;28;19913;-81
2022/05/03 06:31:28;;;;;;;;;;;;;;;12.39;100.00;96023.53;5007022;28;19959;-81
2022/05/03 06:33:54;;;;;;;;;;;;;;;12.60;100.00;96025.50;5006609;28;19922;-81
2022/05/03 06:36:20;;;;;;;;;;;;;;;12.89;100.00;96025.59;5012123;28;19929;-83
2022/05/03 06:38:45;;;;;;;;;;;;;;;13.37;100.00;96026.13;4998443;28;19938;-82
2022/05/03 06:41:12;;;;;;;;;;;;;;;13.56;100.00;96023.97;5011294;28;19914;-82
2022/05/03 06:43:37;;;;;;;;;;;;;;;13.81;100.00;96030.56;5004006;28;19921;-82
2022/05/03 06:46:03;;;;;;;;;;;;;;;13.80;100.00;96028.94;5005335;28;19921;-82
2022/05/03 06:48:29;;;;;;;;;;;;;;;14.04;100.00;96021.72;5004261;28;19921;-82
2022/05/03 06:50:54;;;;;;;;;;;;;;;14.79;97.76;96026.59;5008047;28;20016;-82
2022/05/03 06:53:20;;;;;;;;;;;;;;;15.15;94.59;96022.97;4995881;28;20244;-82
2022/05/03 06:55:45;;;;;;;;;;;;;;;15.61;91.04;96027.75;5015668;28;19924;-82
2022/05/03 06:58:12;;;;;;;;;;;;;;;15.75;91.86;96016.22;4998418;28;19913;-82
2022/05/03 07:00:38;;;;;;;;;;;;;;;16.68;85.01;96019.16;5015760;28;19929;-82
2022/05/03 07:03:03;;;;;;;;;;;;;;;16.46;79.61;96018.53;5007824;28;19924;-82
2022/05/03 07:05:29;;;;;;;;;;;;;;;16.80;83.13;96026.56;4996636;28;19948;-81
2022/05/03 07:07:54;;;;;;;;;;;;;;;16.26;83.63;96022.94;5018172;28;19910;-81
2022/05/03 07:10:20;;;;;;;;;;;;;;;16.21;85.93;96028.88;5000184;28;19940;-80
2022/05/03 07:12:46;;;;;;;;;;;;;;;16.63;83.43;96029.59;5001237;28;19913;-81
2022/05/03 07:15:11;;;;;;;;;;;;;;;16.46;82.13;96031.81;5002572;28;19917;-82
2022/05/03 07:23:08;;;;;;;;;;;;;;;17.28;84.45;96029.03;5021531;28;19943;-82
2022/05/03 07:25:35;;;;;;;;;;;;;;;18.25;72.90;96024.69;5000478;28;20012;-81
2022/05/03 07:28:00;;;;;;;;;;;;;;;17.14;78.40;96033.53;5004372;28;19921;-82
2022/05/03 07:30:26;;;;;;;;;;;;;;;18.29;73.92;96024.03;5036118;28;20232;-82
2022/05/03 07:32:51;;;;;;;;;;;;;;;17.53;76.00;96035.31;5019747;28;20008;-82
2022/05/03 07:35:17;;;;;;;;;;;;;;;17.97;72.70;96033.78;5004515;28;19913;-82
2022/05/03 07:37:43;;;;;;;;;;;;;;;18.37;69.25;96028.28;5010939;28;19913;-82
2022/05/03 07:40:09;;;;;;;;;;;;;;;18.52;68.71;96036.81;5018904;28;19917;-82
2022/05/03 07:42:35;;;;;;;;;;;;;;;18.95;67.03;96030.03;5005306;28;19918;-82
2022/05/03 07:45:02;;;;;;;;;;;;;;;19.21;65.88;96026.31;4979482;28;19920;-81
2022/05/03 07:47:28;;;;;;;;;;;;;;;18.59;66.33;96037.59;5005252;28;19951;-81
2022/05/03 07:49:53;;;;;;;;;;;;;;;18.64;64.88;96030.78;4995721;28;20471;-82
2022/05/03 07:52:19;;;;;;;;;;;;;;;18.23;65.59;96038.19;5007184;28;19916;-82
2022/05/03 07:54:45;;;;;;;;;;;;;;;19.36;54.66;96033.97;5006317;28;19952;-81
2022/05/03 07:57:12;;;;;;;;;;;;;;;19.82;53.77;96038.88;5010586;28;20322;-81
2022/05/03 07:59:38;;;;;;;;;;;;;;;18.97;60.95;96038.59;5007197;28;19914;-83
2022/05/03 08:02:05;;;;;;;;;;;;;;;19.49;58.25;96034.66;5005665;28;19913;-80
2022/05/03 08:04:31;;;;;;;;;;;;;;;20.65;54.66;96029.44;5014437;28;19917;-83
2022/05/03 08:06:56;;;;;;;;;;;;;;;21.10;51.03;96034.34;5006482;28;19921;-83
2022/05/03 08:09:22;;;;;;;;;;;;;;;20.32;53.40;96041.38;5014891;28;19967;-80
2022/05/03 08:11:47;;;;;;;;;;;;;;;20.09;55.33;96035.91;5001079;28;19949;-81
2022/05/03 08:14:13;;;;;;;;;;;;;;;19.81;56.80;96036.44;5004134;28;19925;-82
2022/05/03 08:16:38;;;;;;;;;;;;;;;19.89;56.19;96042.28;5004981;28;19999;-82
2022/05/03 08:19:04;;;;;;;;;;;;;;;19.64;57.07;96044.19;5014887;28;19951;-82
2022/05/03 08:21:32;;;;;;;;;;;;;;;20.30;54.80;96038.09;4999225;28;19936;-80
2022/05/03 08:23:58;;;;;;;;;;;;;;;20.71;54.68;96044.56;5012803;28;19936;-82
2022/05/03 08:26:24;;;;;;;;;;;;;;;21.21;52.34;96044.22;5024002;28;19971;-82
2022/05/03 08:28:51;;;;;;;;;;;;;;;20.71;53.45;96039.22;5015621;28;19921;-78
2022/05/03 08:31:16;;;;;;;;;;;;;;;22.22;49.80;96039.53;5010448;28;19928;-82
2022/05/03 08:33:44;;;;;;;;;;;;;;;20.84;51.42;96041.69;5013412;28;19975;-81
2022/05/03 08:36:10;;;;;;;;;;;;;;;20.94;53.81;96044.63;5006528;28;20380;-81
2022/05/03 08:44:03;;;;;;;;;;;;;;;21.55;52.65;96049.84;5015370;28;19941;-82
2022/05/03 08:46:30;;;;;;;;;;;;;;;21.96;49.31;96051.56;5009286;28;19944;-83
2022/05/03 08:49:05;;;;;;;;;;;;;;;22.83;45.97;96046.03;5005988;28;19913;-82
2022/05/03 08:51:31;;;;;;;;;;;;;;;21.76;49.56;96057.28;5010970;28;20351;-82
2022/05/03 08:53:58;;;;;;;;;;;;;;;22.85;47.34;96053.06;5011993;28;19920;-82
2022/05/03 08:56:24;;;;;;;;;;;;;;;23.34;45.03;96050.69;4997375;28;19921;-82
2022/05/03 08:58:49;;;;;;;;;;;;;;;22.59;48.03;96052.56;5013506;28;19913;-81
2022/05/03 09:01:15;;;;;;;;;;;;;;;22.76;47.61;96050.75;5011729;28;20290;-81
2022/05/03 09:03:40;;;;;;;;;;;;;;;23.91;44.78;96051.31;5010882;28;19913;-80
2022/05/03 09:06:07;;;;;;;;;;;;;;;21.75;48.59;96052.97;4988268;28;20402;-80
2022/05/03 09:08:33;;;;;;;;;;;;;;;22.48;46.42;96048.09;5013343;28;19914;-81
2022/05/03 09:10:59;;;;;;;;;;;;;;;23.19;45.66;96048.56;5005551;28;20430;-80
2022/05/03 09:13:26;;;;;;;;;;;;;;;22.23;47.19;96061.78;5011042;28;19924;-81
2022/05/03 09:15:57;;;;;;;;;;;;;;;22.31;47.43;96053.38;5015549;28;20004;-81
2022/05/03 09:18:26;;;;;;;;;;;;;;;22.28;46.95;96062.72;5013276;28;20286;-79
2022/05/03 09:26:22;;;;;;;;;;;;;;;23.95;44.43;96047.06;5017568;28;19928;-80
2022/05/03 09:28:48;;;;;;;;;;;;;;;24.26;43.83;96044.75;4997369;28;19917;-80
2022/05/03 09:31:14;;;;;;;;;;;;;;;25.08;40.36;96037.56;5010383;28;19918;-80
2022/05/03 09:33:39;;;;;;;;;;;;;;;24.09;41.96;96041.31;5017926;28;19937;-80
2022/05/03 09:36:11;;;;;;;;;;;;;;;24.09;44.12;96041.31;5010266;28;20390;-80
2022/05/03 09:38:47;;;;;;;;;;;;;;;22.53;45.29;96045.50;5013927;28;20570;-80
2022/05/03 09:41:16;;;;;;;;;;;;;;;21.37;48.12;96048.91;5013185;28;19983;-80
2022/05/03 09:44:01;;;;;;;;;;;;;;;22.25;46.67;96039.06;5013073;28;20113;-80
2022/05/03 09:46:28;;;;;;;;;;;;;;;22.61;45.65;96033.59;5013865;28;20008;-80
2022/05/03 09:48:56;;;;;;;;;;;;;;;21.69;48.51;96040.53;5013190;28;20052;-80
2022/05/03 09:51:23;;;;;;;;;;;;;;;21.04;47.62;96040.59;5017016;28;19966;-81
2022/05/03 09:53:59;;;;;;;;;;;;;;;21.23;48.52;96031.44;5005217;28;19913;-80
2022/05/03 09:56:26;;;;;;;;;;;;;;;22.28;45.30;96037.78;5010941;28;20004;-79
2022/05/03 09:58:54;;;;;;;;;;;;;;;21.33;47.22;96046.91;5014079;28;20003;-79
2022/05/03 10:01:20;;;;;;;;;;;;;;;22.24;46.11;96037.44;5007251;28;20306;-78
2022/05/03 10:03:47;;;;;;;;;;;;;;;22.62;45.23;96027.97;5009422;28;20401;-79
2022/05/03 10:06:14;;;;;;;;;;;;;;;22.18;45.33;96030.34;5013191;28;19921;-79
2022/05/03 10:08:39;;;;;;;;;;;;;;;22.20;45.97;96024.75;5009985;28;19909;-83
2022/05/03 10:11:05;;;;;;;;;;;;;;;22.35;44.44;96019.72;5016143;28;20286;-78
2022/05/03 10:13:31;;;;;;;;;;;;;;;23.03;43.74;96018.00;4990971;28;19913;-80
2022/05/03 10:21:30;;;;;;;;;;;;;;;23.92;39.94;96001.09;5019097;28;19913;-80
2022/05/03 10:24:03;;;;;;;;;;;;;;;23.48;42.07;96011.72;5011528;28;19913;-81
2022/05/03 10:26:48;;;;;;;;;;;;;;;24.39;40.43;95997.88;5002128;28;19972;-80
2022/05/03 10:29:14;;;;;;;;;;;;;;;24.69;39.52;95997.41;5010978;28;19971;-80
2022/05/03 10:31:56;;;;;;;;;;;;;;;24.49;41.54;95997.22;5008736;28;19917;-79
2022/05/03 10:34:40;;;;;;;;;;;;;;;24.84;39.28;96005.59;5007880;28;20445;-79
2022/05/03 10:37:07;;;;;;;;;;;;;;;23.38;40.89;96008.91;5004172;28;20012;-79
2022/05/03 10:39:32;;;;;;;;;;;;;;;23.70;41.00;96001.84;5009835;28;20986;-79
2022/05/03 10:41:59;;;;;;;;;;;;;;;23.98;39.42;95992.03;5005394;28;19917;-79
2022/05/03 10:44:40;;;;;;;;;;;;;;;23.68;39.48;96004.00;5006523;28;19917;-79
2022/05/03 10:47:06;;;;;;;;;;;;;;;23.43;39.23;95999.03;4982891;28;19925;-79
2022/05/03 10:49:33;;;;;;;;;;;;;;;24.65;37.15;95996.31;5014956;28;20587;-80
2022/05/03 10:51:59;;;;;;;;;;;;;;;24.86;38.52;95998.09;5010437;28;19948;-79
2022/05/03 10:54:24;;;;;;;;;;;;;;;23.56;37.81;95997.88;5010760;28;20565;-79
2022/05/03 10:57:08;;;;;;;;;;;;;;;21.88;39.92;96006.41;5008396;28;19968;-79
2022/05/03 10:59:46;;;;;;;;;;;;;;;23.24;41.17;95998.50;5010982;28;19913;-79
2022/05/03 11:02:12;;;;;;;;;;;;;;;22.28;42.39;96000.28;5005527;28;19964;-79
2022/05/03 11:05:14;;;;;;;;;;;;;;;22.19;40.98;95991.81;5008207;28;19917;-78
2022/05/03 11:07:40;;;;;;;;;;;;;;;23.00;38.90;95983.63;4971263;28;19953;-80
2022/05/03 11:10:24;;;;;;;;;;;;;;;24.06;38.09;95985.41;4994481;28;19967;-80
2022/05/03 11:12:50;;;;;;;;;;;;;;;23.12;38.20;95988.91;5003910;28;19981;-79
2022/05/03 11:15:16;;;;;;;;;;;;;;;23.10;39.35;95982.97;4997426;28;19914;-79
2022/05/03 11:17:42;;;;;;;;;;;;;;;22.96;37.89;95977.94;5007636;28;19909;-79
2022/05/03 11:20:07;;;;;;;;;;;;;;;21.36;41.21;95983.09;5011811;28;19980;-79
2022/05/03 11:22:35;;;;;;;;;;;;;;;20.84;41.69;95988.25;5007288;28;20483;-79
2022/05/03 11:25:08;;;;;;;;;;;;;;;21.95;38.89;95976.84;5007753;28;19944;-79
2022/05/03 11:27:34;;;;;;;;;;;;;;;22.57;36.42;95977.78;5004081;28;19924;-80
2022/05/03 11:30:03;;;;;;;;;;;;;;;22.10;35.14;95977.16;5009681;28;19921;-79
2022/05/03 11:32:34;;;;;;;;;;;;;;;21.85;36.64;95974.75;5002576;28;20004;-80
2022/05/03 11:35:10;;;;;;;;;;;;;;;21.98;37.65;95968.34;5004913;28;20435;-79
2022/05/03 11:37:43;;;;;;;;;;;;;;;23.44;34.02;95970.31;5014144;28;20625;-79
2022/05/03 11:40:09;;;;;;;;;;;;;;;23.19;34.35;95965.41;5011588;28;20394;-79
2022/05/03 11:42:38;;;;;;;;;;;;;;;23.53;35.31;95964.28;5010525;28;19963;-79
2022/05/03 11:45:05;;;;;;;;;;;;;;;23.02;34.93;95962.75;5027629;28;19918;-80
2022/05/03 11:47:33;;;;;;;;;;;;;;;23.09;34.25;95955.34;5005423;28;19936;-79
2022/05/03 11:49:58;;;;;;;;;;;;;;;23.27;33.20;95956.94;5005005;28;19959;-80
2022/05/03 11:57:54;;;;;;;;;;;;;;;23.42;32.77;95953.69;5001808;28;19987;-79
2022/05/03 12:00:21;;;;;;;;;;;;;;;24.10;32.83;95949.72;5005520;28;19914;-80
2022/05/03 12:02:47;;;;;;;;;;;;;;;24.58;32.82;95941.91;5013057;28;19944;-80
2022/05/03 12:05:17;;;;;;;;;;;;;;;24.26;32.89;95953.41;5017126;28;19958;-78
2022/05/03 12:07:45;;;;;;;;;;;;;;;24.32;32.93;95948.91;5010774;28;19925;-77
2022/05/03 12:10:14;;;;;;;;;;;;;;;24.19;33.33;95953.59;5001586;28;19917;-77
2022/05/03 12:12:48;;;;;;;;;;;;;;;26.13;30.68;95945.38;5019234;28;19928;-77
2022/05/03 12:15:28;;;;;;;;;;;;;;;25.06;29.82;95949.03;5011381;28;19980;-77
2022/05/03 12:17:55;;;;;;;;;;;;;;;24.42;29.99;95938.28;5012512;28;20326;-78
2022/05/03 12:20:21;;;;;;;;;;;;;;;24.73;30.13;95943.94;5009267;28;19976;-78
2022/05/03 12:23:11;;;;;;;;;;;;;;;23.57;31.19;95948.50;5006240;28;19914;-77
2022/05/03 12:25:37;;;;;;;;;;;;;;;25.26;29.02;95942.22;5011513;28;19946;-79
2022/05/03 12:28:03;;;;;;;;;;;;;;;26.05;30.40;95934.00;5006709;28;19992;-77
2022/05/03 12:30:29;;;;;;;;;;;;;;;25.02;30.11;95939.88;5011901;28;19913;-78
2022/05/03 12:33:00;;;;;;;;;;;;;;;25.33;29.65;95937.41;5005646;28;19917;-79
2022/05/03 12:35:29;;;;;;;;;;;;;;;25.78;29.33;95938.72;5006942;28;19968;-78
2022/05/03 12:37:55;;;;;;;;;;;;;;;25.79;29.31;95930.38;4994255;28;19921;-78
2022/05/03 12:40:25;;;;;;;;;;;;;;;25.38;32.58;95932.03;5006899;28;19921;-79
2022/05/03 12:42:52;;;;;;;;;;;;;;;24.45;38.01;95929.72;5010546;28;19963;-77
2022/05/03 12:45:19;;;;;;;;;;;;;;;24.40;39.12;95935.00;4999933;28;19917;-77
2022/05/03 12:47:46;;;;;;;;;;;;;;;24.64;37.19;95936.31;5001634;28;20298;-77
2022/05/03 12:50:12;;;;;;;;;;;;;;;25.04;38.73;95945.78;4998007;28;19964;-79
2022/05/03 12:52:38;;;;;;;;;;;;;;;24.80;38.52;95939.94;5005210;28;20298;-80
2022/05/03 12:55:06;;;;;;;;;;;;;;;23.45;41.00;95945.13;5012946;28;19964;-80
2022/05/03 13:00:15;;;;;;;;;;;;;;;22.95;42.44;95959.41;5008001;28;20378;-79
2022/05/03 13:02:41;;;;;;;;;;;;;;;22.43;43.68;95959.56;4997679;28;20041;-79
2022/05/03 13:05:07;;;;;;;;;;;;;;;21.16;48.23;95958.53;5007272;28;19920;-79
2022/05/03 13:07:33;;;;;;;;;;;;;;;20.84;50.40;95963.38;5002589;28;19922;-79
2022/05/03 13:09:58;;;;;;;;;;;;;;;19.97;57.44;95963.78;4998866;28;19913;-79
2022/05/03 13:12:24;;;;;;;;;;;;;;;20.15;59.42;95966.41;5003503;28;19955;-78
2022/05/03 13:14:49;;;;;;;;;;;;;;;20.23;58.37;95967.94;5000881;28;20000;-78
2022/05/03 13:17:15;;;;;;;;;;;;;;;19.90;59.60;95966.53;5004564;28;19923;-80
2022/05/03 13:19:41;;;;;;;;;;;;;;;19.78;59.85;95965.63;5003447;28;19917;-78
2022/05/03 13:22:06;;;;;;;;;;;;;;;20.21;58.53;95964.69;4999672;28;19913;-78
2022/05/03 13:24:32;;;;;;;;;;;;;;;20.57;61.00;95960.31;5010111;28;20334;-77
2022/05/03 13:27:01;;;;;;;;;;;;;;;19.36;63.76;95962.78;5000912;28;20502;-78
2022/05/03 13:29:27;;;;;;;;;;;;;;;19.22;68.14;95964.78;5007152;28;19917;-79